Time;durP1;ratioP1;P1;durP2;ratioP2;P2;SDS_P1;SDS_P2;PMS_P1;PMS_P2;Temp;Humidity;BMP_temperature;BMP_pressure;BME280_temperature;BME280_humidity;BME280_pressure;Samples;Min_cycle;Max_cycle;Signal;HPM_P1;HPM_P2
2024/01/28 00:01:13;;;;;;;;;;;;;;;;;;4964659;28;19914;-61
2024/01/28 00:03:38;;;;;;;;;;;;;;;;;;4956962;28;19922;-62
2024/01/28 00:06:03;;;;;;;;;;;;;;;;;;4927243;29;20824;-62
2024/01/28 00:08:29;;;;;;;;;;;;;;;;;;4945058;28;20021;-61
2024/01/28 00:10:54;;;;;;;;;;;;;;;;;;4944730;28;19964;-62
2024/01/28 00:13:23;;;;;;;;;;;;;;;;;;4945396;28;20001;-62
2024/01/28 00:15:49;;;;;;;;;;;;;;;;;;4949110;28;20387;-61
2024/01/28 00:18:14;;;;;;;;;;;;;;;;;;4947743;28;19918;-61
2024/01/28 00:20:39;;;;;;;;;;;;;;;;;;4948738;28;19945;-62
2024/01/28 00:23:05;;;;;;;;;;;;;;;;;;4947816;28;19914;-62
2024/01/28 00:25:30;;;;;;;;;;;;;;;;;;4948407;28;19925;-61
2024/01/28 00:27:55;;;;;;;;;;;;;;;;;;4948062;29;20399;-61
2024/01/28 00:30:20;;;;;;;;;;;;;;;;;;4947624;28;20312;-62
2024/01/28 00:32:46;;;;;;;;;;;;;;;;;;4947846;28;19965;-61
2024/01/28 00:35:11;;;;;;;;;;;;;;;;;;4945840;28;20312;-61
2024/01/28 00:37:36;;;;;;;;;;;;;;;;;;4947934;28;19998;-62
2024/01/28 00:40:03;;;;;;;;;;;;;;;;;;4939695;29;20065;-61
2024/01/28 00:42:29;;;;;;;;;;;;;;;;;;4929980;28;20029;-61
2024/01/28 00:44:54;;;;;;;;;;;;;;;;;;4928543;29;20013;-62
2024/01/28 00:47:19;;;;;;;;;;;;;;;;;;4928437;29;19914;-62
2024/01/28 00:49:44;;;;;;;;;;;;;;;;;;4927514;29;19922;-62
2024/01/28 00:52:10;;;;;;;;;;;;;;;;;;4928971;29;19998;-61
2024/01/28 00:54:35;;;;;;;;;;;;;;;;;;4928340;29;20277;-61
2024/01/28 00:57:00;;;;;;;;;;;;;;;;;;4925888;29;19927;-62
2024/01/28 00:59:25;;;;;;;;;;;;;;;;;;4923758;28;19914;-62
2024/01/28 01:01:52;;;;;;;;;;;;;;;;;;4966608;28;19921;-62
2024/01/28 01:04:17;;;;;;;;;;;;;;;;;;4966609;28;19914;-61
2024/01/28 01:06:43;;;;;;;;;;;;;;;;;;4959905;28;19918;-61
2024/01/28 01:09:08;;;;;;;;;;;;;;;;;;4946448;28;19999;-61
2024/01/28 01:11:34;;;;;;;;;;;;;;;;;;4946694;28;20677;-61
2024/01/28 01:13:59;;;;;;;;;;;;;;;;;;4946570;28;19946;-61
2024/01/28 01:16:24;;;;;;;;;;;;;;;;;;4947178;28;19918;-61
2024/01/28 01:18:49;;;;;;;;;;;;;;;;;;4947186;29;19936;-61
2024/01/28 01:21:15;;;;;;;;;;;;;;;;;;4946959;28;19918;-61
2024/01/28 01:23:40;;;;;;;;;;;;;;;;;;4946247;28;19922;-62
2024/01/28 01:26:05;;;;;;;;;;;;;;;;;;4945318;28;19970;-62
2024/01/28 01:28:33;;;;;;;;;;;;;;;;;;4947009;28;19925;-62
2024/01/28 01:30:59;;;;;;;;;;;;;;;;;;4947470;28;19969;-61
2024/01/28 01:33:25;;;;;;;;;;;;;;;;;;4946474;28;19922;-61
2024/01/28 01:35:50;;;;;;;;;;;;;;;;;;4947246;28;19947;-61
2024/01/28 01:38:15;;;;;;;;;;;;;;;;;;4945191;28;19918;-61
2024/01/28 01:40:40;;;;;;;;;;;;;;;;;;4947058;28;19918;-61
2024/01/28 01:43:08;;;;;;;;;;;;;;;;;;4946962;29;19937;-61
2024/01/28 01:45:34;;;;;;;;;;;;;;;;;;4946497;28;19922;-61
2024/01/28 01:47:59;;;;;;;;;;;;;;;;;;4946179;28;19914;-61
2024/01/28 01:50:24;;;;;;;;;;;;;;;;;;4946867;28;19925;-62
2024/01/28 01:52:50;;;;;;;;;;;;;;;;;;4946128;28;20485;-61
2024/01/28 01:55:15;;;;;;;;;;;;;;;;;;4929255;28;20710;-61
2024/01/28 01:57:43;;;;;;;;;;;;;;;;;;4946651;29;19914;-61
2024/01/28 02:00:12;;;;;;;;;;;;;;;;;;4958268;28;20388;-62
2024/01/28 02:02:38;;;;;;;;;;;;;;;;;;4936695;28;20013;-61
2024/01/28 02:05:03;;;;;;;;;;;;;;;;;;4945598;28;20033;-61
2024/01/28 02:07:29;;;;;;;;;;;;;;;;;;4945985;28;19914;-61
2024/01/28 02:09:54;;;;;;;;;;;;;;;;;;4946868;29;20021;-61
2024/01/28 02:12:19;;;;;;;;;;;;;;;;;;4945979;28;19973;-61
2024/01/28 02:14:45;;;;;;;;;;;;;;;;;;4946014;28;20299;-61
2024/01/28 02:17:10;;;;;;;;;;;;;;;;;;4944663;29;19953;-61
2024/01/28 02:19:35;;;;;;;;;;;;;;;;;;4945723;28;19926;-61
2024/01/28 02:22:01;;;;;;;;;;;;;;;;;;4946294;28;20008;-62
2024/01/28 02:24:26;;;;;;;;;;;;;;;;;;4946096;28;19929;-62
2024/01/28 02:26:51;;;;;;;;;;;;;;;;;;4945610;28;19918;-61
2024/01/28 02:29:16;;;;;;;;;;;;;;;;;;4945751;28;20400;-62
2024/01/28 02:31:44;;;;;;;;;;;;;;;;;;4945309;28;19918;-62
2024/01/28 02:34:09;;;;;;;;;;;;;;;;;;4946457;28;20708;-61
2024/01/28 02:36:34;;;;;;;;;;;;;;;;;;4945530;28;19924;-61
2024/01/28 02:39:00;;;;;;;;;;;;;;;;;;4945884;28;19921;-62
2024/01/28 02:41:25;;;;;;;;;;;;;;;;;;4945655;28;20462;-62
2024/01/28 02:43:50;;;;;;;;;;;;;;;;;;4944862;28;19933;-61
2024/01/28 02:46:15;;;;;;;;;;;;;;;;;;4945736;28;19914;-61
2024/01/28 02:48:41;;;;;;;;;;;;;;;;;;4946402;29;20636;-62
2024/01/28 02:51:06;;;;;;;;;;;;;;;;;;4945173;28;19918;-62
2024/01/28 02:53:32;;;;;;;;;;;;;;;;;;4945895;28;20351;-61
2024/01/28 02:55:59;;;;;;;;;;;;;;;;;;4945192;28;19929;-61
2024/01/28 02:58:25;;;;;;;;;;;;;;;;;;4945838;28;19914;-61
2024/01/28 03:00:50;;;;;;;;;;;;;;;;;;4963301;28;19965;-62
2024/01/28 03:03:15;;;;;;;;;;;;;;;;;;4947314;28;19957;-61
2024/01/28 03:05:41;;;;;;;;;;;;;;;;;;4963961;28;20426;-62
2024/01/28 03:08:06;;;;;;;;;;;;;;;;;;4927881;28;20012;-62
2024/01/28 03:10:32;;;;;;;;;;;;;;;;;;4934281;28;20136;-61
2024/01/28 03:12:57;;;;;;;;;;;;;;;;;;4930777;28;20302;-61
2024/01/28 03:15:22;;;;;;;;;;;;;;;;;;4926254;28;19926;-61
2024/01/28 03:17:47;;;;;;;;;;;;;;;;;;4925898;29;20290;-61
2024/01/28 03:20:14;;;;;;;;;;;;;;;;;;4925816;29;20348;-61
2024/01/28 03:22:39;;;;;;;;;;;;;;;;;;4926144;29;20400;-62
2024/01/28 03:25:05;;;;;;;;;;;;;;;;;;4925893;29;19930;-61
2024/01/28 03:27:30;;;;;;;;;;;;;;;;;;4925959;29;20025;-62
2024/01/28 03:29:55;;;;;;;;;;;;;;;;;;4925701;29;19922;-61
2024/01/28 03:32:21;;;;;;;;;;;;;;;;;;4925680;29;20475;-61
2024/01/28 03:34:46;;;;;;;;;;;;;;;;;;4924852;29;19996;-61
2024/01/28 03:37:11;;;;;;;;;;;;;;;;;;4925973;29;19922;-61
2024/01/28 03:39:36;;;;;;;;;;;;;;;;;;4933296;28;20582;-61
2024/01/28 03:42:02;;;;;;;;;;;;;;;;;;4942599;28;19922;-61
2024/01/28 03:44:27;;;;;;;;;;;;;;;;;;4943563;28;19925;-62
2024/01/28 03:46:53;;;;;;;;;;;;;;;;;;4944529;28;19958;-61
2024/01/28 03:49:19;;;;;;;;;;;;;;;;;;4946888;28;19915;-61
2024/01/28 03:51:44;;;;;;;;;;;;;;;;;;4948562;29;19945;-61
2024/01/28 03:54:10;;;;;;;;;;;;;;;;;;4941037;28;19927;-62
2024/01/28 03:56:35;;;;;;;;;;;;;;;;;;4947954;28;19923;-61
2024/01/28 03:59:00;;;;;;;;;;;;;;;;;;4951301;28;19922;-61
2024/01/28 04:01:29;;;;;;;;;;;;;;;;;;4968170;28;20712;-61
2024/01/28 04:03:57;;;;;;;;;;;;;;;;;;4944691;28;19925;-62
2024/01/28 04:06:22;;;;;;;;;;;;;;;;;;4947035;28;19929;-62
2024/01/28 04:08:49;;;;;;;;;;;;;;;;;;4940811;28;19922;-62
2024/01/28 04:11:14;;;;;;;;;;;;;;;;;;4932906;29;19921;-61
2024/01/28 04:13:40;;;;;;;;;;;;;;;;;;4946886;28;19922;-61
2024/01/28 04:16:05;;;;;;;;;;;;;;;;;;4946869;29;19925;-62
2024/01/28 04:18:30;;;;;;;;;;;;;;;;;;4946317;28;20518;-62
2024/01/28 04:20:56;;;;;;;;;;;;;;;;;;4947582;28;19932;-61
2024/01/28 04:23:21;;;;;;;;;;;;;;;;;;4945298;28;20026;-61
2024/01/28 04:25:46;;;;;;;;;;;;;;;;;;4929194;28;19923;-61
2024/01/28 04:28:11;;;;;;;;;;;;;;;;;;4911325;29;20352;-61
2024/01/28 04:30:37;;;;;;;;;;;;;;;;;;4909907;29;19915;-61
2024/01/28 04:33:02;;;;;;;;;;;;;;;;;;4927565;29;19922;-62
2024/01/28 04:35:27;;;;;;;;;;;;;;;;;;4927947;29;19918;-61
2024/01/28 04:37:52;;;;;;;;;;;;;;;;;;4927015;29;19926;-61
2024/01/28 04:40:18;;;;;;;;;;;;;;;;;;4926679;29;19923;-61
2024/01/28 04:42:43;;;;;;;;;;;;;;;;;;4928169;29;19907;-62
2024/01/28 04:45:10;;;;;;;;;;;;;;;;;;4927086;29;19922;-61
2024/01/28 04:47:36;;;;;;;;;;;;;;;;;;4927866;29;19925;-61
2024/01/28 04:50:01;;;;;;;;;;;;;;;;;;4927279;29;20565;-61
2024/01/28 04:52:26;;;;;;;;;;;;;;;;;;4927941;29;19915;-61
2024/01/28 04:54:52;;;;;;;;;;;;;;;;;;4929476;28;19915;-61
2024/01/28 04:57:17;;;;;;;;;;;;;;;;;;4927371;29;19965;-61
2024/01/28 04:59:42;;;;;;;;;;;;;;;;;;4944700;28;19930;-61
2024/01/28 05:02:08;;;;;;;;;;;;;;;;;;4965836;28;20580;-62
2024/01/28 05:04:33;;;;;;;;;;;;;;;;;;4946660;28;20296;-61
2024/01/28 05:06:59;;;;;;;;;;;;;;;;;;4909447;29;1130629;-61
2024/01/28 05:09:24;;;;;;;;;;;;;;;;;;4940400;28;19926;-61
2024/01/28 05:11:49;;;;;;;;;;;;;;;;;;4937050;29;20671;-61
2024/01/28 05:14:14;;;;;;;;;;;;;;;;;;4947841;28;19922;-61
2024/01/28 05:16:41;;;;;;;;;;;;;;;;;;4946825;28;19929;-61
2024/01/28 05:19:07;;;;;;;;;;;;;;;;;;4947679;28;20463;-61
2024/01/28 05:21:32;;;;;;;;;;;;;;;;;;4947379;28;19953;-62
2024/01/28 05:23:58;;;;;;;;;;;;;;;;;;4946266;28;20008;-61
2024/01/28 05:26:23;;;;;;;;;;;;;;;;;;4928542;28;19919;-61
2024/01/28 05:28:49;;;;;;;;;;;;;;;;;;4927653;29;19925;-62
2024/01/28 05:31:14;;;;;;;;;;;;;;;;;;4927424;29;19915;-61
2024/01/28 05:33:40;;;;;;;;;;;;;;;;;;4928433;29;19911;-61
2024/01/28 05:36:12;;;;;;;;;;;;;;;;;;4927946;29;20542;-61
2024/01/28 05:38:38;;;;;;;;;;;;;;;;;;4926927;29;19919;-61
2024/01/28 05:41:03;;;;;;;;;;;;;;;;;;4942771;28;20431;-61
2024/01/28 05:43:29;;;;;;;;;;;;;;;;;;4946660;28;20014;-61
2024/01/28 05:45:54;;;;;;;;;;;;;;;;;;4947370;29;19949;-61
2024/01/28 05:48:19;;;;;;;;;;;;;;;;;;4946442;28;20466;-61
2024/01/28 05:50:44;;;;;;;;;;;;;;;;;;4946312;28;20359;-61
2024/01/28 05:53:10;;;;;;;;;;;;;;;;;;4945356;28;19918;-61
2024/01/28 05:55:35;;;;;;;;;;;;;;;;;;4945455;28;20452;-61
2024/01/28 05:58:00;;;;;;;;;;;;;;;;;;4933678;29;19922;-61
2024/01/28 06:00:25;;;;;;;;;;;;;;;;;;4955772;28;19917;-62
2024/01/28 06:02:51;;;;;;;;;;;;;;;;;;4965887;28;20486;-61
2024/01/28 06:05:16;;;;;;;;;;;;;;;;;;4965745;28;19925;-61
2024/01/28 06:07:41;;;;;;;;;;;;;;;;;;4950736;28;19923;-61
2024/01/28 06:10:07;;;;;;;;;;;;;;;;;;4933037;28;20137;-61
2024/01/28 06:12:32;;;;;;;;;;;;;;;;;;4941145;29;19929;-61
2024/01/28 06:15:02;;;;;;;;;;;;;;;;;;4945837;28;19929;-61
2024/01/28 06:17:29;;;;;;;;;;;;;;;;;;4946487;28;19922;-62
2024/01/28 06:19:55;;;;;;;;;;;;;;;;;;4946297;28;19973;-61
2024/01/28 06:22:20;;;;;;;;;;;;;;;;;;4946011;28;19918;-61
2024/01/28 06:24:45;;;;;;;;;;;;;;;;;;4940040;29;19961;-62
2024/01/28 06:27:10;;;;;;;;;;;;;;;;;;4945999;29;20020;-61
2024/01/28 06:29:36;;;;;;;;;;;;;;;;;;4943228;28;19923;-62
2024/01/28 06:32:01;;;;;;;;;;;;;;;;;;4911634;29;20420;-62
2024/01/28 06:34:26;;;;;;;;;;;;;;;;;;4926927;29;20523;-61
2024/01/28 06:36:51;;;;;;;;;;;;;;;;;;4927142;29;19974;-62
2024/01/28 06:39:17;;;;;;;;;;;;;;;;;;4926294;29;19914;-61
2024/01/28 06:41:43;;;;;;;;;;;;;;;;;;4929343;28;19922;-61
2024/01/28 06:44:08;;;;;;;;;;;;;;;;;;4926765;29;20450;-61
2024/01/28 06:46:34;;;;;;;;;;;;;;;;;;4928136;29;20468;-62
2024/01/28 06:48:59;;;;;;;;;;;;;;;;;;4925899;29;19915;-61
2024/01/28 06:51:24;;;;;;;;;;;;;;;;;;4926781;29;19929;-61
2024/01/28 06:53:51;;;;;;;;;;;;;;;;;;4925222;29;19933;-62
2024/01/28 06:56:17;;;;;;;;;;;;;;;;;;4926753;29;19951;-62
2024/01/28 06:58:43;;;;;;;;;;;;;;;;;;4927279;28;19918;-62
2024/01/28 07:01:10;;;;;;;;;;;;;;;;;;4965162;28;19914;-62
2024/01/28 07:03:35;;;;;;;;;;;;;;;;;;4965060;28;19918;-61
2024/01/28 07:06:00;;;;;;;;;;;;;;;;;;4962445;28;19925;-61
2024/01/28 07:08:25;;;;;;;;;;;;;;;;;;4936069;28;21266;-63
2024/01/28 07:10:51;;;;;;;;;;;;;;;;;;4931425;28;19918;-62
2024/01/28 07:13:16;;;;;;;;;;;;;;;;;;4925876;29;20389;-62
2024/01/28 07:15:41;;;;;;;;;;;;;;;;;;4926423;29;20432;-62
2024/01/28 07:18:07;;;;;;;;;;;;;;;;;;4925462;28;20331;-62
2024/01/28 07:20:32;;;;;;;;;;;;;;;;;;4929959;29;19933;-62
2024/01/28 07:22:57;;;;;;;;;;;;;;;;;;4933257;29;19919;-62
2024/01/28 07:25:22;;;;;;;;;;;;;;;;;;4929241;28;19914;-62
2024/01/28 07:27:48;;;;;;;;;;;;;;;;;;4936360;29;19910;-63
2024/01/28 07:30:13;;;;;;;;;;;;;;;;;;4924102;29;19941;-61
2024/01/28 07:32:38;;;;;;;;;;;;;;;;;;4923795;29;19922;-62
2024/01/28 07:35:04;;;;;;;;;;;;;;;;;;4935420;29;20417;-62
2024/01/28 07:37:29;;;;;;;;;;;;;;;;;;4942673;29;20066;-62
2024/01/28 07:39:54;;;;;;;;;;;;;;;;;;4929319;29;20368;-62
2024/01/28 07:42:20;;;;;;;;;;;;;;;;;;4934207;28;20021;-62
2024/01/28 07:44:45;;;;;;;;;;;;;;;;;;4941198;29;19961;-62
2024/01/28 07:47:11;;;;;;;;;;;;;;;;;;4939939;28;19918;-62
2024/01/28 07:49:36;;;;;;;;;;;;;;;;;;4938364;29;19922;-62
2024/01/28 07:52:01;;;;;;;;;;;;;;;;;;4929149;29;19922;-62
2024/01/28 07:54:26;;;;;;;;;;;;;;;;;;4921810;29;20640;-62
2024/01/28 07:56:52;;;;;;;;;;;;;;;;;;4935134;28;20644;-63
2024/01/28 07:59:17;;;;;;;;;;;;;;;;;;4946278;28;20441;-63
2024/01/28 08:01:43;;;;;;;;;;;;;;;;;;4940303;28;19926;-63
2024/01/28 08:04:08;;;;;;;;;;;;;;;;;;4940777;29;19941;-62
2024/01/28 08:06:33;;;;;;;;;;;;;;;;;;4939763;29;20466;-62
2024/01/28 08:09:00;;;;;;;;;;;;;;;;;;4940830;29;19945;-62
2024/01/28 08:11:25;;;;;;;;;;;;;;;;;;4940436;28;19973;-62
2024/01/28 08:13:51;;;;;;;;;;;;;;;;;;4940092;28;19914;-62
2024/01/28 08:16:16;;;;;;;;;;;;;;;;;;4939525;29;19976;-62
2024/01/28 08:18:41;;;;;;;;;;;;;;;;;;4937238;29;19914;-62
2024/01/28 08:21:07;;;;;;;;;;;;;;;;;;4936624;28;19934;-63
2024/01/28 08:23:34;;;;;;;;;;;;;;;;;;4934464;29;19927;-62
2024/01/28 08:25:59;;;;;;;;;;;;;;;;;;4935434;28;19944;-62
2024/01/28 08:28:24;;;;;;;;;;;;;;;;;;4937926;29;20667;-62
2024/01/28 08:30:50;;;;;;;;;;;;;;;;;;4940771;29;19945;-62
2024/01/28 08:33:15;;;;;;;;;;;;;;;;;;4938464;29;19937;-63
2024/01/28 08:35:40;;;;;;;;;;;;;;;;;;4930490;29;20010;-62
2024/01/28 08:38:06;;;;;;;;;;;;;;;;;;4928000;29;20316;-62
2024/01/28 08:40:31;;;;;;;;;;;;;;;;;;4934297;28;20009;-62
2024/01/28 08:42:57;;;;;;;;;;;;;;;;;;4939743;29;20013;-63
2024/01/28 08:45:22;;;;;;;;;;;;;;;;;;4938679;29;19922;-63
2024/01/28 08:47:47;;;;;;;;;;;;;;;;;;4936626;28;19922;-62
2024/01/28 08:50:13;;;;;;;;;;;;;;;;;;4936166;29;20397;-62
2024/01/28 08:52:38;;;;;;;;;;;;;;;;;;4939345;28;19925;-63
2024/01/28 08:55:04;;;;;;;;;;;;;;;;;;4932268;29;20285;-62
2024/01/28 08:57:29;;;;;;;;;;;;;;;;;;4937656;28;19923;-63
2024/01/28 08:59:54;;;;;;;;;;;;;;;;;;4949894;28;19922;-63
2024/01/28 09:02:19;;;;;;;;;;;;;;;;;;4921390;29;19981;-63
2024/01/28 09:04:45;;;;;;;;;;;;;;;;;;4936436;28;19946;-63
2024/01/28 09:07:10;;;;;;;;;;;;;;;;;;4930823;29;19980;-63
2024/01/28 09:09:35;;;;;;;;;;;;;;;;;;4934350;28;19918;-62
2024/01/28 09:12:00;;;;;;;;;;;;;;;;;;4932674;28;20353;-62
2024/01/28 09:14:28;;;;;;;;;;;;;;;;;;4937359;29;19919;-64
2024/01/28 09:16:54;;;;;;;;;;;;;;;;;;4938967;28;19918;-62
2024/01/28 09:19:19;;;;;;;;;;;;;;;;;;4937477;29;19918;-63
2024/01/28 09:21:44;;;;;;;;;;;;;;;;;;4935712;29;19942;-62
2024/01/28 09:24:09;;;;;;;;;;;;;;;;;;4932484;28;19978;-61
2024/01/28 09:26:35;;;;;;;;;;;;;;;;;;4938808;29;19918;-64
2024/01/28 09:29:00;;;;;;;;;;;;;;;;;;4938460;28;20004;-62
2024/01/28 09:31:25;;;;;;;;;;;;;;;;;;4935151;29;19961;-62
2024/01/28 09:33:51;;;;;;;;;;;;;;;;;;4936073;29;19929;-62
2024/01/28 09:36:16;;;;;;;;;;;;;;;;;;4934243;28;20095;-62
2024/01/28 09:38:41;;;;;;;;;;;;;;;;;;4935626;28;19958;-63
2024/01/28 09:41:13;;;;;;;;;;;;;;;;;;4932943;28;19926;-63
2024/01/28 09:43:41;;;;;;;;;;;;;;;;;;4933939;29;19922;-63
2024/01/28 09:46:07;;;;;;;;;;;;;;;;;;4934501;28;20403;-63
2024/01/28 09:48:32;;;;;;;;;;;;;;;;;;4937205;28;19919;-63
2024/01/28 09:50:58;;;;;;;;;;;;;;;;;;4938096;29;19918;-62
2024/01/28 09:53:23;;;;;;;;;;;;;;;;;;4935369;28;20012;-62
2024/01/28 09:55:48;;;;;;;;;;;;;;;;;;4934424;29;19926;-63
2024/01/28 09:58:14;;;;;;;;;;;;;;;;;;4935516;29;19922;-63
2024/01/28 10:00:41;;;;;;;;;;;;;;;;;;4946742;28;20385;-63
2024/01/28 10:03:06;;;;;;;;;;;;;;;;;;4934300;28;19915;-63
2024/01/28 10:05:31;;;;;;;;;;;;;;;;;;4939423;28;19923;-64
2024/01/28 10:08:02;;;;;;;;;;;;;;;;;;4940227;29;19919;-63
2024/01/28 10:10:27;;;;;;;;;;;;;;;;;;4942282;28;19929;-63
2024/01/28 10:12:52;;;;;;;;;;;;;;;;;;4941280;29;19922;-63
2024/01/28 10:15:19;;;;;;;;;;;;;;;;;;4930254;29;19914;-63
2024/01/28 10:17:47;;;;;;;;;;;;;;;;;;4935752;29;19925;-63
2024/01/28 10:20:13;;;;;;;;;;;;;;;;;;4938337;28;19922;-62
2024/01/28 10:22:39;;;;;;;;;;;;;;;;;;4934301;29;19987;-60
2024/01/28 10:25:04;;;;;;;;;;;;;;;;;;4933854;29;19939;-62
2024/01/28 10:27:30;;;;;;;;;;;;;;;;;;4935375;29;19997;-60
2024/01/28 10:29:55;;;;;;;;;;;;;;;;;;4934289;28;19918;-61
2024/01/28 10:32:20;;;;;;;;;;;;;;;;;;4934497;29;20289;-62
2024/01/28 10:34:46;;;;;;;;;;;;;;;;;;4937393;28;19987;-62
2024/01/28 10:37:12;;;;;;;;;;;;;;;;;;4937334;29;19972;-62
2024/01/28 10:39:37;;;;;;;;;;;;;;;;;;4926934;28;19922;-62
2024/01/28 10:42:04;;;;;;;;;;;;;;;;;;4931600;29;19927;-62
2024/01/28 10:44:31;;;;;;;;;;;;;;;;;;4935952;28;19922;-63
2024/01/28 10:46:58;;;;;;;;;;;;;;;;;;4934418;29;19974;-62
2024/01/28 10:49:31;;;;;;;;;;;;;;;;;;4935932;29;19922;-62
2024/01/28 10:51:57;;;;;;;;;;;;;;;;;;4930569;29;19907;-63
2024/01/28 10:54:23;;;;;;;;;;;;;;;;;;4932720;29;19934;-62
2024/01/28 10:56:49;;;;;;;;;;;;;;;;;;4931413;29;19922;-62
2024/01/28 10:59:15;;;;;;;;;;;;;;;;;;4941474;28;19918;-63
2024/01/28 11:01:41;;;;;;;;;;;;;;;;;;4932031;28;19923;-63
2024/01/28 11:04:06;;;;;;;;;;;;;;;;;;4931794;29;19965;-63
2024/01/28 11:06:32;;;;;;;;;;;;;;;;;;4931456;29;19929;-62
2024/01/28 11:08:58;;;;;;;;;;;;;;;;;;4938145;28;19944;-62
2024/01/28 11:11:23;;;;;;;;;;;;;;;;;;4929409;28;20818;-62
2024/01/28 11:13:48;;;;;;;;;;;;;;;;;;4934936;28;19925;-62
2024/01/28 11:16:15;;;;;;;;;;;;;;;;;;4935527;28;20384;-62
2024/01/28 11:18:40;;;;;;;;;;;;;;;;;;4931869;28;19918;-63
2024/01/28 11:21:13;;;;;;;;;;;;;;;;;;4931454;29;19926;-63
2024/01/28 11:23:44;;;;;;;;;;;;;;;;;;4932330;28;19926;-63
2024/01/28 11:26:16;;;;;;;;;;;;;;;;;;4933726;28;19918;-63
2024/01/28 11:28:45;;;;;;;;;;;;;;;;;;4932088;28;20464;-63
2024/01/28 11:31:34;;;;;;;;;;;;;;;;;;4930462;29;20475;-62
2024/01/28 11:34:11;;;;;;;;;;;;;;;;;;4931599;29;20640;-63
2024/01/28 11:36:40;;;;;;;;;;;;;;;;;;4933454;29;20037;-63
2024/01/28 11:39:05;;;;;;;;;;;;;;;;;;4928042;28;20010;-65
2024/01/28 11:41:40;;;;;;;;;;;;;;;;;;4930579;29;19943;-62
2024/01/28 11:44:09;;;;;;;;;;;;;;;;;;4930741;28;19922;-62
2024/01/28 11:46:35;;;;;;;;;;;;;;;;;;4934167;29;20034;-63
2024/01/28 11:49:01;;;;;;;;;;;;;;;;;;4933850;28;20035;-63
2024/01/28 11:51:31;;;;;;;;;;;;;;;;;;4933656;28;19918;-63
2024/01/28 11:53:58;;;;;;;;;;;;;;;;;;4931357;28;20725;-63
2024/01/28 11:56:23;;;;;;;;;;;;;;;;;;4933215;28;19938;-63
2024/01/28 11:58:48;;;;;;;;;;;;;;;;;;4933961;28;19919;-62
2024/01/28 12:01:13;;;;;;;;;;;;;;;;;;4939151;28;20725;-63
2024/01/28 12:03:39;;;;;;;;;;;;;;;;;;4933956;29;19925;-63
2024/01/28 12:06:04;;;;;;;;;;;;;;;;;;4934339;28;19982;-62
2024/01/28 12:08:31;;;;;;;;;;;;;;;;;;4932680;28;19934;-62
2024/01/28 12:11:00;;;;;;;;;;;;;;;;;;4938649;28;19923;-63
2024/01/28 12:13:25;;;;;;;;;;;;;;;;;;4937877;28;19970;-63
2024/01/28 12:15:51;;;;;;;;;;;;;;;;;;4938077;29;19918;-62
2024/01/28 12:18:16;;;;;;;;;;;;;;;;;;4930922;28;20374;-62
2024/01/28 12:20:41;;;;;;;;;;;;;;;;;;4934055;28;19989;-63
2024/01/28 12:23:07;;;;;;;;;;;;;;;;;;4931535;29;19973;-63
2024/01/28 12:25:35;;;;;;;;;;;;;;;;;;4931147;29;19926;-63
2024/01/28 12:28:00;;;;;;;;;;;;;;;;;;4937083;29;19915;-63
2024/01/28 12:30:25;;;;;;;;;;;;;;;;;;4936126;28;19918;-63
2024/01/28 12:32:51;;;;;;;;;;;;;;;;;;4935945;29;20682;-63
2024/01/28 12:35:16;;;;;;;;;;;;;;;;;;4934470;28;19974;-63
2024/01/28 12:37:41;;;;;;;;;;;;;;;;;;4932696;28;19926;-63
2024/01/28 12:40:10;;;;;;;;;;;;;;;;;;4929186;29;19925;-63
2024/01/28 12:42:38;;;;;;;;;;;;;;;;;;4934765;29;19929;-64
2024/01/28 12:45:03;;;;;;;;;;;;;;;;;;4937536;28;19922;-63
2024/01/28 12:47:29;;;;;;;;;;;;;;;;;;4935012;29;19941;-63
2024/01/28 12:49:54;;;;;;;;;;;;;;;;;;4932782;29;19926;-64
2024/01/28 12:52:19;;;;;;;;;;;;;;;;;;4933415;29;20316;-63
2024/01/28 12:54:44;;;;;;;;;;;;;;;;;;4928406;29;20390;-63
2024/01/28 12:57:11;;;;;;;;;;;;;;;;;;4933999;29;19923;-63
2024/01/28 12:59:37;;;;;;;;;;;;;;;;;;4941536;28;20025;-63
2024/01/28 13:02:04;;;;;;;;;;;;;;;;;;4933538;28;20467;-63
2024/01/28 13:04:29;;;;;;;;;;;;;;;;;;4934531;29;19914;-63
2024/01/28 13:06:54;;;;;;;;;;;;;;;;;;4940896;29;20738;-63
2024/01/28 13:09:20;;;;;;;;;;;;;;;;;;4931869;28;19922;-63
2024/01/28 13:11:45;;;;;;;;;;;;;;;;;;4936883;29;20410;-63
2024/01/28 13:14:12;;;;;;;;;;;;;;;;;;4936630;29;19923;-63
2024/01/28 13:16:37;;;;;;;;;;;;;;;;;;4934161;28;20038;-64
2024/01/28 13:19:02;;;;;;;;;;;;;;;;;;4933029;29;20089;-63
2024/01/28 13:21:28;;;;;;;;;;;;;;;;;;4931571;29;19918;-64
2024/01/28 13:23:53;;;;;;;;;;;;;;;;;;4931698;28;19922;-63
2024/01/28 13:26:20;;;;;;;;;;;;;;;;;;4935284;29;19922;-63
2024/01/28 13:28:45;;;;;;;;;;;;;;;;;;4932613;28;20396;-63
2024/01/28 13:31:11;;;;;;;;;;;;;;;;;;4933552;29;19915;-63
2024/01/28 13:33:36;;;;;;;;;;;;;;;;;;4934819;29;20372;-63
2024/01/28 13:36:01;;;;;;;;;;;;;;;;;;4935931;28;20009;-63
2024/01/28 13:38:27;;;;;;;;;;;;;;;;;;4912977;28;20303;-63
2024/01/28 13:40:52;;;;;;;;;;;;;;;;;;4933084;28;20407;-63
2024/01/28 13:43:17;;;;;;;;;;;;;;;;;;4936992;29;19915;-63
2024/01/28 13:45:43;;;;;;;;;;;;;;;;;;4910512;29;20392;-63
2024/01/28 13:48:08;;;;;;;;;;;;;;;;;;4933176;28;19926;-63
2024/01/28 13:50:33;;;;;;;;;;;;;;;;;;4927440;28;19929;-63
2024/01/28 13:52:58;;;;;;;;;;;;;;;;;;4935173;28;19929;-64
2024/01/28 13:55:24;;;;;;;;;;;;;;;;;;4925424;29;19914;-62
2024/01/28 13:57:49;;;;;;;;;;;;;;;;;;4935007;29;19945;-63
2024/01/28 14:00:15;;;;;;;;;;;;;;;;;;4936408;28;20832;-63
2024/01/28 14:02:43;;;;;;;;;;;;;;;;;;4913861;28;19926;-62
2024/01/28 14:05:11;;;;;;;;;;;;;;;;;;4935523;28;19930;-64
2024/01/28 14:07:36;;;;;;;;;;;;;;;;;;4928186;29;19922;-61
2024/01/28 14:10:02;;;;;;;;;;;;;;;;;;4927627;28;19973;-61
2024/01/28 14:12:28;;;;;;;;;;;;;;;;;;4932771;28;19969;-64
2024/01/28 14:14:53;;;;;;;;;;;;;;;;;;4935435;28;20365;-63
2024/01/28 14:17:20;;;;;;;;;;;;;;;;;;4937379;28;19922;-62
2024/01/28 14:19:45;;;;;;;;;;;;;;;;;;4939105;28;19949;-62
2024/01/28 14:22:10;;;;;;;;;;;;;;;;;;4936544;29;19922;-62
2024/01/28 14:24:36;;;;;;;;;;;;;;;;;;4926542;29;19914;-62
2024/01/28 14:27:02;;;;;;;;;;;;;;;;;;4934351;28;20332;-61
2024/01/28 14:29:27;;;;;;;;;;;;;;;;;;4934772;29;19925;-62
2024/01/28 14:31:52;;;;;;;;;;;;;;;;;;4930467;28;20016;-62
2024/01/28 14:34:17;;;;;;;;;;;;;;;;;;4932198;29;20049;-62
2024/01/28 14:36:43;;;;;;;;;;;;;;;;;;4934661;29;20041;-62
2024/01/28 14:39:08;;;;;;;;;;;;;;;;;;4934895;28;20172;-62
2024/01/28 14:41:33;;;;;;;;;;;;;;;;;;4932778;29;19929;-62
2024/01/28 14:43:58;;;;;;;;;;;;;;;;;;4931800;28;19918;-62
2024/01/28 14:46:24;;;;;;;;;;;;;;;;;;4931890;29;19921;-62
2024/01/28 14:48:49;;;;;;;;;;;;;;;;;;4935031;29;19957;-63
2024/01/28 14:51:14;;;;;;;;;;;;;;;;;;4934208;28;19919;-62
2024/01/28 14:53:39;;;;;;;;;;;;;;;;;;4931927;29;19918;-62
2024/01/28 14:56:05;;;;;;;;;;;;;;;;;;4931486;28;20326;-63
2024/01/28 14:58:31;;;;;;;;;;;;;;;;;;4932121;29;19936;-63
2024/01/28 15:00:56;;;;;;;;;;;;;;;;;;4945219;28;19921;-62
2024/01/28 15:03:21;;;;;;;;;;;;;;;;;;4931767;29;19925;-63
2024/01/28 15:05:47;;;;;;;;;;;;;;;;;;4922634;29;19954;-63
2024/01/28 15:08:12;;;;;;;;;;;;;;;;;;4936335;28;19970;-63
2024/01/28 15:10:38;;;;;;;;;;;;;;;;;;4932704;29;19919;-62
2024/01/28 15:13:03;;;;;;;;;;;;;;;;;;4932699;29;19919;-63
2024/01/28 15:15:29;;;;;;;;;;;;;;;;;;4931793;28;19950;-63
2024/01/28 15:17:55;;;;;;;;;;;;;;;;;;4931090;29;19918;-63
2024/01/28 15:20:21;;;;;;;;;;;;;;;;;;4931680;28;19970;-63
2024/01/28 15:22:49;;;;;;;;;;;;;;;;;;4934130;29;19919;-63
2024/01/28 15:25:15;;;;;;;;;;;;;;;;;;4935240;28;19973;-63
2024/01/28 15:27:40;;;;;;;;;;;;;;;;;;4932819;28;19922;-62
2024/01/28 15:30:06;;;;;;;;;;;;;;;;;;4930954;29;19919;-62
2024/01/28 15:32:31;;;;;;;;;;;;;;;;;;4931231;28;19919;-62
2024/01/28 15:34:56;;;;;;;;;;;;;;;;;;4934802;29;19969;-63
2024/01/28 15:37:21;;;;;;;;;;;;;;;;;;4933657;28;20001;-63
2024/01/28 15:39:47;;;;;;;;;;;;;;;;;;4931870;28;19918;-63
2024/01/28 15:42:12;;;;;;;;;;;;;;;;;;4929107;29;20365;-62
2024/01/28 15:44:38;;;;;;;;;;;;;;;;;;4933812;28;19926;-62
2024/01/28 15:47:03;;;;;;;;;;;;;;;;;;4938037;29;19922;-62
2024/01/28 15:49:29;;;;;;;;;;;;;;;;;;4937866;28;20478;-62
2024/01/28 15:51:54;;;;;;;;;;;;;;;;;;4933949;29;19965;-63
2024/01/28 15:54:19;;;;;;;;;;;;;;;;;;4932056;29;19926;-61
2024/01/28 15:56:44;;;;;;;;;;;;;;;;;;4936072;28;19930;-62
2024/01/28 15:59:10;;;;;;;;;;;;;;;;;;4944952;28;19922;-63
2024/01/28 16:01:35;;;;;;;;;;;;;;;;;;4939573;28;19993;-62
2024/01/28 16:04:01;;;;;;;;;;;;;;;;;;4937911;28;20271;-62
2024/01/28 16:06:26;;;;;;;;;;;;;;;;;;4937188;28;19927;-62
2024/01/28 16:08:51;;;;;;;;;;;;;;;;;;4936805;28;19922;-62
2024/01/28 16:11:18;;;;;;;;;;;;;;;;;;4937002;29;20315;-61
2024/01/28 16:13:43;;;;;;;;;;;;;;;;;;4942870;28;19922;-62
2024/01/28 16:16:09;;;;;;;;;;;;;;;;;;4933579;29;19925;-62
2024/01/28 16:18:34;;;;;;;;;;;;;;;;;;4935566;29;19925;-62
2024/01/28 16:21:00;;;;;;;;;;;;;;;;;;4937577;28;20753;-62
2024/01/28 16:23:26;;;;;;;;;;;;;;;;;;4936535;29;19919;-62
2024/01/28 16:25:51;;;;;;;;;;;;;;;;;;4934579;28;19922;-62
2024/01/28 16:28:16;;;;;;;;;;;;;;;;;;4919677;28;19925;-62
2024/01/28 16:30:42;;;;;;;;;;;;;;;;;;4925676;29;20824;-62
2024/01/28 16:33:07;;;;;;;;;;;;;;;;;;4933346;28;19918;-61
2024/01/28 16:35:34;;;;;;;;;;;;;;;;;;4916422;29;19927;-60